createdAt,value
2023-02-14T00:00:47.892Z,100431.00
2023-02-14T00:03:50.520Z,100418.38
2023-02-14T00:06:53.124Z,100420.47
2023-02-14T00:09:55.698Z,100427.50
2023-02-14T00:12:58.391Z,100429.34
2023-02-14T00:16:01.425Z,100415.31
2023-02-14T00:19:04.704Z,100426.06
2023-02-14T00:22:07.470Z,100423.97
2023-02-14T00:25:11.170Z,100422.13
2023-02-14T00:28:13.832Z,100418.19
2023-02-14T00:31:17.842Z,100419.22
2023-02-14T00:34:20.938Z,100429.34
2023-02-14T00:37:24.235Z,100435.75
2023-02-14T00:40:26.809Z,100429.56
2023-02-14T00:43:29.394Z,100424.19
2023-02-14T00:46:33.533Z,100420.03
2023-02-14T00:49:36.432Z,100423.38
2023-02-14T00:52:39.112Z,100422.34
2023-02-14T00:55:41.873Z,100425.41
2023-02-14T00:58:44.811Z,100420.25
2023-02-14T01:01:48.850Z,100427.06
2023-02-14T01:04:51.858Z,100428.31
2023-02-14T01:07:54.510Z,100422.50
2023-02-14T01:10:57.468Z,100423.34
2023-02-14T01:14:00.412Z,100432.66
2023-02-14T01:17:04.763Z,100432.03
2023-02-14T01:20:09.019Z,100424.38
2023-02-14T01:23:11.708Z,100425.81
2023-02-14T01:26:14.982Z,100429.56
2023-02-14T01:29:17.643Z,100434.28
2023-02-14T01:32:21.611Z,100422.94
2023-02-14T01:35:25.523Z,100418.59
2023-02-14T01:38:28.020Z,100412.81
2023-02-14T01:41:33.403Z,100414.25
2023-02-14T01:45:02.625Z,100410.94
2023-02-14T01:48:06.610Z,100414.88
2023-02-14T01:51:09.369Z,100410.53
2023-02-14T01:54:12.392Z,100409.50
2023-02-14T01:57:17.285Z,100409.09
2023-02-14T02:00:38.791Z,100407.84
2023-02-14T02:03:45.792Z,100408.88
2023-02-14T02:06:52.338Z,100413.25
2023-02-14T02:09:57.070Z,100419.00
2023-02-14T02:13:02.923Z,100422.72
2023-02-14T02:16:27.163Z,100418.56
2023-02-14T02:20:11.409Z,100409.31
2023-02-14T02:23:40.347Z,100407.66
2023-02-14T02:27:21.398Z,100408.69
2023-02-14T02:30:44.078Z,100406.22
2023-02-14T02:34:22.094Z,100406.63
2023-02-14T02:37:33.715Z,100403.94
2023-02-14T02:40:48.125Z,100404.75
2023-02-14T02:43:55.582Z,100401.66
2023-02-14T02:47:05.342Z,100406.41
2023-02-14T02:50:37.729Z,100405.78
2023-02-14T02:53:46.016Z,100408.88
2023-02-14T02:56:53.431Z,100408.84
2023-02-14T02:59:57.233Z,100408.47
2023-02-14T03:03:23.214Z,100399.59
2023-02-14T03:06:25.812Z,100395.22
2023-02-14T03:09:56.714Z,100405.34
2023-02-14T03:13:27.275Z,100407.19
2023-02-14T03:16:35.599Z,100401.81
2023-02-14T03:20:01.730Z,100409.22
2023-02-14T03:23:10.106Z,100410.25
2023-02-14T03:26:17.396Z,100414.00
2023-02-14T03:29:26.855Z,100414.63
2023-02-14T03:32:35.519Z,100410.91
2023-02-14T03:35:41.610Z,100410.66
2023-02-14T03:38:46.393Z,100411.72
2023-02-14T03:41:53.009Z,100410.03
2023-02-14T03:44:56.649Z,100415.38
2023-02-14T03:48:03.356Z,100405.88
2023-02-14T03:51:08.333Z,100404.47
2023-02-14T03:54:13.012Z,100406.34
2023-02-14T03:57:20.858Z,100406.94
2023-02-14T04:00:23.760Z,100394.34
2023-02-14T04:03:27.287Z,100393.50
2023-02-14T04:06:30.862Z,100402.16
2023-02-14T04:09:33.462Z,100396.34
2023-02-14T04:12:38.277Z,100391.44
2023-02-14T04:15:41.075Z,100393.91
2023-02-14T04:19:01.593Z,100393.09
2023-02-14T04:22:05.223Z,100398.25
2023-02-14T04:25:08.341Z,100389.81
2023-02-14T04:28:12.433Z,100392.69
2023-02-14T04:31:16.003Z,100392.25
2023-02-14T04:34:18.701Z,100394.31
2023-02-14T04:37:21.835Z,100390.16
2023-02-14T04:40:24.418Z,100387.69
2023-02-14T04:43:28.378Z,100390.63
2023-02-14T04:46:30.984Z,100387.09
2023-02-14T04:49:34.070Z,100394.66
2023-02-14T04:52:36.591Z,100389.53
2023-02-14T04:55:39.176Z,100387.25
2023-02-14T04:58:43.220Z,100394.06
2023-02-14T05:01:45.816Z,100388.25
2023-02-14T05:04:49.838Z,100385.63
2023-02-14T05:07:52.531Z,100387.66
2023-02-14T05:10:55.954Z,100382.13
2023-02-14T05:14:00.087Z,100386.06
2023-02-14T05:17:02.746Z,100386.66
2023-02-14T05:20:06.418Z,100388.97
2023-02-14T05:23:13.558Z,100390.19
2023-02-14T05:26:16.805Z,100388.53
2023-02-14T05:29:21.046Z,100387.47
2023-02-14T05:32:23.597Z,100387.25
2023-02-14T05:35:26.241Z,100381.66
2023-02-14T05:38:28.976Z,100382.91
2023-02-14T05:41:31.588Z,100390.16
2023-02-14T05:44:35.603Z,100388.28
2023-02-14T05:47:38.349Z,100389.31
2023-02-14T05:50:42.470Z,100387.09
2023-02-14T05:53:45.071Z,100393.06
2023-02-14T05:56:47.692Z,100395.31
2023-02-14T05:59:51.655Z,100396.72
2023-02-14T06:02:54.209Z,100400.00
2023-02-14T06:05:56.826Z,100401.06
2023-02-14T06:08:59.586Z,100402.09
2023-02-14T06:12:02.155Z,100406.66
2023-02-14T06:15:07.101Z,100409.50
2023-02-14T06:18:09.657Z,100412.41
2023-02-14T06:21:12.314Z,100404.13
2023-02-14T06:24:15.061Z,100407.84
2023-02-14T06:27:18.126Z,100409.09
2023-02-14T06:30:22.190Z,100414.84
2023-02-14T06:33:24.885Z,100418.59
2023-02-14T06:36:27.789Z,100413.66
2023-02-14T06:39:30.446Z,100411.59
2023-02-14T06:42:33.377Z,100417.81
2023-02-14T06:45:37.562Z,100420.34
2023-02-14T06:48:40.316Z,100421.56
2023-02-14T06:51:42.933Z,100434.81
2023-02-14T06:54:45.735Z,100429.44
2023-02-14T06:57:48.371Z,100420.59
2023-02-14T07:00:52.506Z,100424.34
2023-02-14T07:03:55.133Z,100417.94
2023-02-14T07:06:57.997Z,100419.19
2023-02-14T07:10:00.769Z,100412.97
2023-02-14T07:13:03.387Z,100412.16
2023-02-14T07:16:07.477Z,100415.06
2023-02-14T07:19:10.075Z,100412.81
2023-02-14T07:22:12.784Z,100413.41
2023-02-14T07:25:15.468Z,100413.41
2023-02-14T07:28:18.119Z,100414.69
2023-02-14T07:31:23.647Z,100418.41
2023-02-14T07:34:27.251Z,100413.25
2023-02-14T07:37:30.057Z,100421.28
2023-02-14T07:40:32.783Z,100411.81
2023-02-14T07:43:35.369Z,100413.84
2023-02-14T07:46:39.470Z,100425.22
2023-02-14T07:49:42.250Z,100420.44
2023-02-14T07:52:45.495Z,100418.78
2023-02-14T07:55:50.067Z,100417.34
2023-02-14T07:58:52.738Z,100413.38
2023-02-14T08:01:56.788Z,100412.53
2023-02-14T08:04:59.608Z,100410.84
2023-02-14T08:08:02.370Z,100409.59
2023-02-14T08:11:05.306Z,100409.78
2023-02-14T08:14:07.898Z,100407.06
2023-02-14T08:17:13.431Z,100404.94
2023-02-14T08:20:16.153Z,100401.81
2023-02-14T08:23:19.620Z,100400.50
2023-02-14T08:26:22.328Z,100406.03
2023-02-14T08:29:25.064Z,100414.25
2023-02-14T08:32:29.372Z,100407.59
2023-02-14T08:35:32.025Z,100402.53
2023-02-14T08:38:34.821Z,100396.66
2023-02-14T08:41:37.869Z,100400.06
2023-02-14T08:44:40.453Z,100390.88
2023-02-14T08:47:44.495Z,100395.53
2023-02-14T08:50:47.085Z,100390.28
2023-02-14T08:53:51.618Z,100386.03
2023-02-14T08:56:54.201Z,100383.59
2023-02-14T08:59:56.837Z,100394.63
2023-02-14T09:03:01.413Z,100387.88
2023-02-14T09:06:04.802Z,100393.41
2023-02-14T09:09:07.809Z,100386.66
2023-02-14T09:12:11.338Z,100387.16
2023-02-14T09:15:14.105Z,100386.41
2023-02-14T09:18:18.072Z,100388.78
2023-02-14T09:21:22.396Z,100377.28
2023-02-14T09:24:24.953Z,100378.19
2023-02-14T09:27:27.625Z,100370.69
2023-02-14T09:30:30.457Z,100378.59
2023-02-14T09:33:34.559Z,100365.59
2023-02-14T09:36:54.778Z,100363.91
2023-02-14T09:39:57.477Z,100357.81
2023-02-14T09:43:05.007Z,100361.69
2023-02-14T09:46:09.645Z,100361.28
2023-02-14T09:49:15.509Z,100364.56
2023-02-14T09:52:28.594Z,100359.56
2023-02-14T09:55:37.252Z,100357.28
2023-02-14T09:58:45.210Z,100353.00
2023-02-14T10:01:50.908Z,100344.22
2023-02-14T10:04:59.655Z,100349.00
2023-02-14T10:08:09.391Z,100341.13
2023-02-14T10:11:16.268Z,100346.28
2023-02-14T10:14:21.296Z,100341.91
2023-02-14T10:17:33.915Z,100336.56
2023-02-14T10:20:41.280Z,100338.47
2023-02-14T10:23:46.982Z,100337.41
2023-02-14T10:26:51.513Z,100332.22
2023-02-14T10:29:54.367Z,100330.81
2023-02-14T10:33:03.370Z,100318.47
2023-02-14T10:36:15.701Z,100313.69
2023-02-14T10:39:29.869Z,100314.75
2023-02-14T10:42:39.551Z,100313.03
2023-02-14T10:45:46.680Z,100304.41
2023-02-14T10:48:55.730Z,100298.06
2023-02-14T10:52:04.264Z,100300.63
2023-02-14T10:55:20.175Z,100296.47
2023-02-14T10:58:35.600Z,100290.25
2023-02-14T11:01:38.390Z,100291.94
2023-02-14T11:04:42.205Z,100291.06
2023-02-14T11:07:46.786Z,100292.81
2023-02-14T11:10:49.674Z,100284.06
2023-02-14T11:13:52.395Z,100274.34
2023-02-14T11:16:55.656Z,100275.56
2023-02-14T11:19:59.641Z,100274.53
2023-02-14T11:23:03.653Z,100275.22
2023-02-14T11:26:10.354Z,100268.44
2023-02-14T11:29:14.739Z,100259.00
2023-02-14T11:32:22.649Z,100255.31
2023-02-14T11:35:33.869Z,100253.44
2023-02-14T11:38:40.026Z,100249.09
2023-02-14T11:41:50.232Z,100243.75
2023-02-14T11:44:58.481Z,100242.44
2023-02-14T11:48:22.341Z,100238.06
2023-02-14T11:51:33.283Z,100231.84
2023-02-14T11:54:38.536Z,100237.59
2023-02-14T11:57:41.302Z,100235.97
2023-02-14T12:00:52.543Z,100225.34
2023-02-14T12:03:56.938Z,100219.38
2023-02-14T12:07:14.677Z,100221.31
2023-02-14T12:10:22.915Z,100207.66
2023-02-14T12:13:26.814Z,100211.75
2023-02-14T12:16:32.848Z,100213.38
2023-02-14T12:19:40.069Z,100204.09
2023-02-14T12:22:46.864Z,100213.91
2023-02-14T12:25:52.505Z,100200.81
2023-02-14T12:28:59.603Z,100200.50
2023-02-14T12:32:06.360Z,100191.75
2023-02-14T12:35:16.545Z,100189.06
2023-02-14T12:38:26.595Z,100190.94
2023-02-14T12:41:39.543Z,100186.28
2023-02-14T12:44:47.231Z,100179.97
2023-02-14T12:47:55.188Z,100174.19
2023-02-14T12:51:01.957Z,100169.72
2023-02-14T12:54:18.347Z,100162.78
2023-02-14T12:57:34.801Z,100166.00
2023-02-14T13:00:45.959Z,100164.34
2023-02-14T13:04:01.118Z,100156.13
2023-02-14T13:07:09.805Z,100158.00
2023-02-14T13:10:22.076Z,100145.94
2023-02-14T13:13:34.635Z,100153.94
2023-02-14T13:16:41.549Z,100145.66
2023-02-14T13:19:48.698Z,100135.00
2023-02-14T13:22:51.540Z,100134.31
2023-02-14T13:25:59.136Z,100130.06
2023-02-14T13:29:05.772Z,100120.56
2023-02-14T13:32:13.073Z,100118.72
2023-02-14T13:35:16.967Z,100113.25
2023-02-14T13:38:20.058Z,100112.88
2023-02-14T13:41:23.679Z,100111.09
2023-02-14T13:44:48.058Z,100102.16
2023-02-14T13:48:03.522Z,100104.28
2023-02-14T13:51:07.868Z,100105.00
2023-02-14T13:54:21.998Z,100099.31
2023-02-14T13:57:31.517Z,100096.09
2023-02-14T14:00:41.033Z,100093.00
2023-02-14T14:03:58.391Z,100095.16
2023-02-14T14:07:18.642Z,100090.13
2023-02-14T14:10:45.006Z,100083.69
2023-02-14T14:14:02.506Z,100084.00
2023-02-14T14:17:25.978Z,100086.66
2023-02-14T14:20:48.835Z,100085.09
2023-02-14T14:24:04.548Z,100075.38
2023-02-14T14:27:08.681Z,100076.41
2023-02-14T14:30:19.347Z,100072.34
2023-02-14T14:33:27.870Z,100073.09
2023-02-14T14:36:30.487Z,100076.81
2023-02-14T14:39:34.506Z,100070.34
2023-02-14T14:42:38.072Z,100069.81
2023-02-14T14:45:42.652Z,100057.63
2023-02-14T14:48:49.648Z,100055.75
2023-02-14T14:51:52.388Z,100058.59
2023-02-14T14:54:55.057Z,100058.09
2023-02-14T14:57:59.435Z,100044.72
2023-02-14T15:01:02.632Z,100048.66
2023-02-14T15:04:18.167Z,100054.78
2023-02-14T15:07:25.832Z,100047.84
2023-02-14T15:10:30.123Z,100053.97
2023-02-14T15:13:50.416Z,100051.94
2023-02-14T15:16:57.612Z,100049.41
2023-02-14T15:20:04.462Z,100044.72
2023-02-14T15:23:07.170Z,100052.69
2023-02-14T15:26:12.684Z,100047.25
2023-02-14T15:29:22.777Z,100062.38
2023-02-14T15:32:26.295Z,100057.75
2023-02-14T15:35:32.880Z,100060.09
2023-02-14T15:38:37.879Z,100062.47
2023-02-14T15:41:44.770Z,100053.78
2023-02-14T15:44:47.529Z,100049.47
2023-02-14T15:47:53.065Z,100046.22
2023-02-14T15:50:59.845Z,100043.56
2023-02-14T15:54:04.859Z,100048.41
2023-02-14T15:57:08.945Z,100055.03
2023-02-14T16:00:17.997Z,100048.75
2023-02-14T16:03:22.935Z,100055.94
2023-02-14T16:06:36.666Z,100048.38
2023-02-14T16:09:39.320Z,100047.88
2023-02-14T16:12:42.457Z,100052.31
2023-02-14T16:15:58.151Z,100043.88
2023-02-14T16:19:01.729Z,100049.63
2023-02-14T16:22:07.074Z,100051.00
2023-02-14T16:25:10.024Z,100052.94
2023-02-14T16:28:12.679Z,100049.66
2023-02-14T16:31:16.989Z,100049.38
2023-02-14T16:34:20.262Z,100045.78
2023-02-14T16:37:26.734Z,100054.16
2023-02-14T16:40:30.098Z,100056.84
2023-02-14T16:43:32.811Z,100055.97
2023-02-14T16:46:37.140Z,100059.97
2023-02-14T16:49:39.877Z,100068.00
2023-02-14T16:52:44.778Z,100060.56
2023-02-14T16:55:47.454Z,100070.00
2023-02-14T16:58:50.207Z,100067.16
2023-02-14T17:01:53.162Z,100066.19
2023-02-14T17:04:55.937Z,100072.34
2023-02-14T17:08:01.720Z,100079.47
2023-02-14T17:11:04.521Z,100071.69
2023-02-14T17:14:07.627Z,100073.81
2023-02-14T17:17:10.594Z,100084.00
2023-02-14T17:20:14.459Z,100076.75
2023-02-14T17:23:20.262Z,100087.44
2023-02-14T17:26:23.339Z,100084.84
2023-02-14T17:29:26.142Z,100087.34
2023-02-14T17:32:28.756Z,100085.00
2023-02-14T17:35:31.511Z,100089.34
2023-02-14T17:38:35.953Z,100083.50
2023-02-14T17:41:38.556Z,100081.78
2023-02-14T17:44:41.211Z,100080.59
2023-02-14T17:47:45.214Z,100089.53
2023-02-14T17:50:47.803Z,100090.84
2023-02-14T17:53:52.166Z,100088.47
2023-02-14T17:56:54.763Z,100086.50
2023-02-14T17:59:58.431Z,100092.47
2023-02-14T18:03:01.211Z,100093.59
2023-02-14T18:06:04.531Z,100088.69
2023-02-14T18:09:09.141Z,100093.41
2023-02-14T18:12:14.933Z,100089.47
2023-02-14T18:15:18.386Z,100096.25
2023-02-14T18:18:21.421Z,100097.00
2023-02-14T18:21:25.461Z,100099.75
2023-02-14T18:24:29.443Z,100090.28
2023-02-14T18:27:32.429Z,100084.19
2023-02-14T18:30:35.062Z,100083.38
2023-02-14T18:33:38.493Z,100086.38
2023-02-14T18:36:42.195Z,100085.88
2023-02-14T18:39:46.792Z,100087.69
2023-02-14T18:42:49.355Z,100078.97
2023-02-14T18:45:51.998Z,100082.63
2023-02-14T18:48:56.100Z,100083.34
2023-02-14T18:51:59.748Z,100078.06
2023-02-14T18:55:03.904Z,100071.75
2023-02-14T18:58:07.840Z,100068.22
2023-02-14T19:01:12.130Z,100072.13
2023-02-14T19:04:16.653Z,100069.91
2023-02-14T19:07:19.793Z,100054.06
2023-02-14T19:10:24.505Z,100060.41
2023-02-14T19:13:29.374Z,100055.94
2023-02-14T19:16:34.250Z,100054.81
2023-02-14T19:19:36.880Z,100050.81
2023-02-14T19:22:39.559Z,100056.19
2023-02-14T19:25:43.692Z,100049.75
2023-02-14T19:28:48.228Z,100055.00
2023-02-14T19:31:56.909Z,100058.31
2023-02-14T19:34:59.680Z,100057.50
2023-02-14T19:38:03.474Z,100046.34
2023-02-14T19:41:07.442Z,100046.81
2023-02-14T19:44:13.899Z,100043.66
2023-02-14T19:47:29.032Z,100037.19
2023-02-14T19:50:36.556Z,100027.81
2023-02-14T19:53:39.206Z,100026.28
2023-02-14T19:56:45.406Z,100037.44
2023-02-14T19:59:48.103Z,100036.59
2023-02-14T20:02:51.107Z,100033.09
2023-02-14T20:05:53.888Z,100032.50
2023-02-14T20:09:06.149Z,100031.19
2023-02-14T20:12:26.263Z,100028.63
2023-02-14T20:15:33.539Z,100030.50
2023-02-14T20:18:37.540Z,100022.97
2023-02-14T20:21:42.025Z,100022.84
2023-02-14T20:24:44.648Z,100031.53
2023-02-14T20:27:51.316Z,100025.19
2023-02-14T20:30:54.466Z,100020.06
2023-02-14T20:33:57.610Z,100014.41
2023-02-14T20:37:01.150Z,100020.59
2023-02-14T20:40:04.526Z,100019.88
2023-02-14T20:43:08.531Z,100016.13
2023-02-14T20:46:12.239Z,100008.97
2023-02-14T20:49:16.186Z,99998.44
2023-02-14T20:52:19.488Z,99998.31
2023-02-14T20:55:22.142Z,99995.75
2023-02-14T20:58:26.128Z,99997.25
2023-02-14T21:01:29.324Z,99990.66
2023-02-14T21:04:32.160Z,99983.50
2023-02-14T21:07:34.709Z,99985.47
2023-02-14T21:10:44.327Z,99976.16
2023-02-14T21:13:48.237Z,99978.09
2023-02-14T21:16:50.652Z,99972.94
2023-02-14T21:20:17.093Z,99970.00
2023-02-14T21:23:20.104Z,99967.78
2023-02-14T21:26:22.739Z,99978.94
2023-02-14T21:29:27.272Z,99968.59
2023-02-14T21:32:30.228Z,99969.09
2023-02-14T21:35:32.788Z,99960.25
2023-02-14T21:38:35.596Z,99962.22
2023-02-14T21:41:38.482Z,99966.41
2023-02-14T21:45:00.186Z,99961.78
2023-02-14T21:48:20.523Z,99957.31
2023-02-14T21:51:23.742Z,99963.88
2023-02-14T21:54:29.116Z,99963.28
2023-02-14T21:57:34.097Z,99961.13
2023-02-14T22:00:48.109Z,99960.69
2023-02-14T22:03:52.386Z,99955.31
2023-02-14T22:06:57.165Z,99960.09
2023-02-14T22:10:00.075Z,99955.84
2023-02-14T22:13:02.839Z,99949.97
2023-02-14T22:16:12.865Z,99949.72
2023-02-14T22:19:17.031Z,99956.06
2023-02-14T22:22:19.688Z,99956.16
2023-02-14T22:25:23.067Z,99949.72
2023-02-14T22:28:25.840Z,99955.56
2023-02-14T22:31:39.655Z,99949.00
2023-02-14T22:34:42.418Z,99943.03
2023-02-14T22:37:45.072Z,99944.66
2023-02-14T22:40:47.669Z,99944.13
2023-02-14T22:43:50.746Z,99945.81
2023-02-14T22:46:54.791Z,99936.31
2023-02-14T22:49:59.354Z,99940.47
2023-02-14T22:53:03.237Z,99938.69
2023-02-14T22:56:13.561Z,99933.63
2023-02-14T22:59:18.580Z,99933.88
2023-02-14T23:02:22.595Z,99941.84
2023-02-14T23:05:25.540Z,99924.50
2023-02-14T23:08:28.325Z,99938.69
2023-02-14T23:11:32.220Z,99934.84
2023-02-14T23:14:52.489Z,99933.41
2023-02-14T23:18:14.525Z,99927.53
2023-02-14T23:21:35.072Z,99926.38
2023-02-14T23:24:37.965Z,99923.94
2023-02-14T23:27:42.891Z,99928.28
2023-02-14T23:30:45.893Z,99927.97
2023-02-14T23:33:52.571Z,99926.63
2023-02-14T23:36:55.344Z,99921.56
2023-02-14T23:39:58.020Z,99920.34
2023-02-14T23:43:00.763Z,99922.66
2023-02-14T23:46:03.787Z,99933.63
2023-02-14T23:49:09.408Z,99924.53
2023-02-14T23:52:13.251Z,99923.34
2023-02-14T23:55:15.853Z,99917.50
2023-02-14T23:58:18.473Z,99917.44
